Terminal Aerodrome Forecast
Issued by NWS

Home | Current Version | Previous Version | Text Only | Print | Product List | Glossary On
Versions: 1 2 3 4 5 6 7 8 9 10 11 12 13 14 15 16 17 18 19 20 21 22 23 24 25 26 27 28 29 30 31 32 33 34 35 36 37 38 39 40 41 42 43 44 45 46 47 48
000
FTUS43 KGLD 160527
TAFMCK
TAF
KMCK 160527Z 1606/1706 05006KT P6SM FEW250
     FM161000 08006KT 5SM BR OVC009
     FM161300 10006KT 2SM BR OVC003
     FM161700 12006KT 5SM BR OVC008
     FM161900 13006KT P6SM VCSH OVC015
     FM170000 14005KT P6SM OVC008
     FM170400 VRB03KT 5SM BR BKN010=

USA.gov is the U.S. government's official web portal to all federal, state and local government web resources and services.